createdAt,value
2023-05-06T00:00:07.680Z,58.87
2023-05-06T00:05:09.407Z,58.84
2023-05-06T00:10:11.204Z,58.50
2023-05-06T00:15:12.782Z,58.13
2023-05-06T00:20:14.821Z,58.52
2023-05-06T00:25:16.339Z,58.25
2023-05-06T00:30:18.011Z,57.93
2023-05-06T00:35:19.582Z,57.36
2023-05-06T00:40:21.075Z,56.92
2023-05-06T00:45:22.563Z,57.48
2023-05-06T00:50:24.178Z,58.30
2023-05-06T00:55:26.148Z,58.37
2023-05-06T01:00:27.635Z,58.24
2023-05-06T01:05:31.256Z,58.20
2023-05-06T01:10:54.308Z,58.58
2023-05-06T01:15:57.108Z,58.11
2023-05-06T01:20:59.105Z,57.93
2023-05-06T01:26:00.639Z,58.41
2023-05-06T01:31:12.275Z,58.71
2023-05-06T01:36:18.848Z,58.68
2023-05-06T01:41:20.600Z,57.53
2023-05-06T01:46:22.297Z,57.47
2023-05-06T01:51:23.791Z,58.10
2023-05-06T01:56:27.041Z,56.77
2023-05-06T02:01:28.553Z,56.79
2023-05-06T02:06:30.054Z,57.05
2023-05-06T02:11:31.517Z,57.33
2023-05-06T02:16:33.085Z,57.38
2023-05-06T02:21:34.671Z,57.86
2023-05-06T02:26:36.133Z,57.63
2023-05-06T02:31:37.721Z,57.37
2023-05-06T02:36:39.241Z,57.76
2023-05-06T02:41:40.687Z,57.98
2023-05-06T02:46:43.565Z,57.68
2023-05-06T02:51:44.890Z,58.09
2023-05-06T02:56:46.399Z,58.19
2023-05-06T03:01:47.893Z,57.39
2023-05-06T03:06:49.365Z,56.99
2023-05-06T03:11:50.844Z,57.32
2023-05-06T03:16:52.364Z,56.84
2023-05-06T03:21:53.957Z,56.77
2023-05-06T03:26:55.458Z,56.85
2023-05-06T03:31:57.146Z,57.26
2023-05-06T03:36:58.808Z,57.07
2023-05-06T03:42:00.275Z,56.81
2023-05-06T03:47:01.725Z,57.10
2023-05-06T03:52:03.188Z,56.27
2023-05-06T03:57:05.265Z,56.47
2023-05-06T04:02:06.877Z,56.89
2023-05-06T04:07:08.997Z,56.43
2023-05-06T04:12:10.654Z,57.19
2023-05-06T04:17:12.178Z,57.03
2023-05-06T04:22:13.663Z,56.64
2023-05-06T04:27:15.206Z,56.90
2023-05-06T04:32:17.992Z,56.62
2023-05-06T04:37:20.034Z,56.58
2023-05-06T04:42:21.610Z,56.84
2023-05-06T04:47:23.155Z,56.78
2023-05-06T04:52:24.714Z,56.42
2023-05-06T04:57:26.262Z,56.58
2023-05-06T05:02:27.796Z,56.68
2023-05-06T05:07:29.332Z,56.20
2023-05-06T05:12:31.192Z,56.06
2023-05-06T05:17:32.640Z,55.84
2023-05-06T05:22:34.100Z,55.65
2023-05-06T05:27:36.340Z,55.98
2023-05-06T05:32:37.861Z,56.30
2023-05-06T05:37:39.354Z,56.57
2023-05-06T05:42:40.796Z,55.37
2023-05-06T05:47:42.310Z,55.83
2023-05-06T05:52:43.780Z,55.57
2023-05-06T05:57:51.768Z,55.38
2023-05-06T06:02:53.384Z,55.77
2023-05-06T06:07:54.963Z,56.58
2023-05-06T06:12:56.515Z,56.08
2023-05-06T06:17:58.133Z,55.50
2023-05-06T06:22:59.644Z,56.18
2023-05-06T06:28:01.124Z,56.41
2023-05-06T06:33:02.638Z,56.75
2023-05-06T06:38:04.120Z,56.40
2023-05-06T06:43:05.613Z,56.01
2023-05-06T06:48:07.133Z,56.11
2023-05-06T06:53:09.815Z,55.94
2023-05-06T06:58:11.402Z,55.96
2023-05-06T07:03:15.797Z,55.62
2023-05-06T07:08:17.370Z,56.06
2023-05-06T07:13:20.676Z,56.05
2023-05-06T07:18:22.303Z,56.61
2023-05-06T07:23:23.769Z,56.08
2023-05-06T07:28:25.718Z,55.99
2023-05-06T07:33:27.178Z,55.13
2023-05-06T07:38:28.621Z,55.78
2023-05-06T07:43:30.098Z,55.27
2023-05-06T07:48:33.073Z,55.08
2023-05-06T07:53:34.835Z,55.36
2023-05-06T07:58:36.316Z,54.76
2023-05-06T08:03:38.037Z,54.71
2023-05-06T08:08:39.634Z,53.67
2023-05-06T08:13:41.140Z,53.73
2023-05-06T08:18:42.591Z,53.23
2023-05-06T08:23:44.057Z,52.75
2023-05-06T08:28:45.619Z,52.66
2023-05-06T08:33:47.084Z,52.04
2023-05-06T08:38:50.718Z,52.24
2023-05-06T08:43:52.341Z,51.90
2023-05-06T08:48:53.905Z,51.41
2023-05-06T08:53:55.935Z,51.86
2023-05-06T08:58:58.441Z,53.02
2023-05-06T09:03:59.917Z,52.28
2023-05-06T09:09:01.386Z,51.97
2023-05-06T09:14:13.397Z,51.25
2023-05-06T09:19:15.544Z,51.18
2023-05-06T09:24:17.110Z,50.81
2023-05-06T09:29:18.578Z,51.38
2023-05-06T09:34:21.119Z,51.33
2023-05-06T09:39:26.601Z,51.06
2023-05-06T09:44:28.124Z,50.02
2023-05-06T09:49:29.591Z,49.10
2023-05-06T09:54:31.072Z,49.75
2023-05-06T09:59:32.540Z,49.78
2023-05-06T10:04:34.472Z,48.45
2023-05-06T10:09:36.103Z,48.01
2023-05-06T10:14:37.801Z,48.04
2023-05-06T10:19:40.216Z,47.61
2023-05-06T10:24:47.429Z,47.08
2023-05-06T10:29:48.919Z,47.65
2023-05-06T10:34:54.782Z,46.52
2023-05-06T10:39:56.327Z,47.07
2023-05-06T10:45:03.676Z,47.20
2023-05-06T10:50:31.618Z,46.99
2023-05-06T10:55:34.534Z,46.65
2023-05-06T11:00:36.185Z,46.75
2023-05-06T11:05:48.851Z,46.72
2023-05-06T11:10:50.956Z,46.88
2023-05-06T11:15:52.501Z,45.56
2023-05-06T11:21:03.045Z,46.18
2023-05-06T11:26:06.936Z,46.11
2023-05-06T11:31:08.475Z,45.73
2023-05-06T11:36:13.869Z,45.59
2023-05-06T11:41:15.692Z,45.28
2023-05-06T11:46:21.192Z,45.48
2023-05-06T11:51:23.143Z,44.74
2023-05-06T11:56:25.009Z,44.79
2023-05-06T12:01:26.486Z,43.64
2023-05-06T12:06:37.035Z,44.36
2023-05-06T12:11:38.994Z,45.23
2023-05-06T12:16:41.269Z,43.98
2023-05-06T12:21:43.110Z,44.96
2023-05-06T12:26:46.037Z,44.62
2023-05-06T12:31:47.691Z,45.30
2023-05-06T12:36:49.197Z,46.46
2023-05-06T12:41:50.768Z,45.72
2023-05-06T12:46:55.002Z,45.50
2023-05-06T12:52:09.528Z,46.19
2023-05-06T12:57:11.105Z,47.38
2023-05-06T13:02:12.717Z,46.63
2023-05-06T13:07:14.273Z,46.64
2023-05-06T13:12:15.838Z,46.92
2023-05-06T13:17:17.621Z,47.31
2023-05-06T13:22:19.916Z,46.85
2023-05-06T13:27:21.787Z,47.40
2023-05-06T13:32:23.382Z,48.13
2023-05-06T13:37:24.840Z,47.50
2023-05-06T13:42:26.303Z,47.53
2023-05-06T13:47:27.810Z,46.71
2023-05-06T13:52:29.299Z,46.35
2023-05-06T13:57:30.787Z,45.46
2023-05-06T14:02:32.293Z,46.51
2023-05-06T14:07:33.879Z,46.21
2023-05-06T14:12:35.385Z,46.19
2023-05-06T14:17:37.121Z,46.41
2023-05-06T14:22:39.974Z,46.33
2023-05-06T14:27:41.428Z,46.45
2023-05-06T14:32:43.570Z,45.23
2023-05-06T14:37:45.216Z,45.99
2023-05-06T14:42:46.682Z,48.14
2023-05-06T14:47:48.270Z,46.83
2023-05-06T14:52:49.792Z,47.33
2023-05-06T14:57:52.021Z,47.63
2023-05-06T15:02:53.662Z,46.69
2023-05-06T15:07:55.259Z,47.50
2023-05-06T15:12:56.766Z,49.11
2023-05-06T15:17:58.339Z,49.22
2023-05-06T15:22:59.886Z,48.79
2023-05-06T15:28:01.390Z,48.30
2023-05-06T15:33:03.040Z,49.41
2023-05-06T15:38:04.611Z,48.42
2023-05-06T15:43:06.141Z,49.15
2023-05-06T15:48:07.711Z,49.08
2023-05-06T15:53:09.581Z,49.55
2023-05-06T15:58:11.060Z,49.30
2023-05-06T16:03:12.921Z,49.26
2023-05-06T16:08:14.562Z,49.73
2023-05-06T16:13:16.106Z,49.72
2023-05-06T16:18:17.631Z,50.22
2023-05-06T16:23:19.491Z,50.78
2023-05-06T16:28:20.977Z,51.19
2023-05-06T16:33:22.427Z,51.28
2023-05-06T16:38:24.667Z,51.38
2023-05-06T16:43:26.154Z,51.56
2023-05-06T16:48:27.760Z,51.57
2023-05-06T16:53:29.480Z,51.72
2023-05-06T16:58:31.033Z,52.43
2023-05-06T17:03:32.623Z,53.37
2023-05-06T17:08:36.380Z,52.43
2023-05-06T17:13:38.455Z,52.54
2023-05-06T17:18:39.940Z,53.79
2023-05-06T17:23:41.466Z,53.76
2023-05-06T17:28:42.960Z,53.52
2023-05-06T17:33:44.735Z,53.70
2023-05-06T17:38:49.030Z,52.68
2023-05-06T17:43:50.963Z,53.59
2023-05-06T17:48:53.019Z,53.37
2023-05-06T17:53:54.481Z,54.65
2023-05-06T17:58:58.055Z,53.85
2023-05-06T18:03:59.619Z,54.18
2023-05-06T18:09:01.176Z,55.11
2023-05-06T18:14:02.657Z,54.69
2023-05-06T18:19:05.142Z,54.78
2023-05-06T18:24:15.858Z,54.83
2023-05-06T18:29:18.190Z,55.66
2023-05-06T18:34:19.668Z,54.48
2023-05-06T18:39:22.830Z,54.56
2023-05-06T18:44:24.338Z,55.24
2023-05-06T18:49:27.419Z,54.24
2023-05-06T18:54:28.878Z,53.71
2023-05-06T18:59:30.576Z,54.13
2023-05-06T19:04:32.144Z,53.68
2023-05-06T19:09:36.822Z,53.93
2023-05-06T19:14:38.298Z,54.95
2023-05-06T19:19:40.621Z,53.58
2023-05-06T19:24:42.144Z,53.63
2023-05-06T19:29:43.613Z,54.14
2023-05-06T19:34:45.073Z,54.71
2023-05-06T19:39:47.514Z,54.81
2023-05-06T19:44:49.631Z,53.94
2023-05-06T19:49:53.735Z,53.84
2023-05-06T19:54:55.218Z,53.98
2023-05-06T19:59:56.771Z,54.29
2023-05-06T20:04:58.283Z,54.57
2023-05-06T20:09:59.829Z,55.39
2023-05-06T20:15:03.527Z,55.49
2023-05-06T20:20:09.630Z,54.71
2023-05-06T20:25:13.016Z,55.38
2023-05-06T20:30:14.842Z,54.86
2023-05-06T20:35:16.847Z,55.23
2023-05-06T20:40:18.354Z,54.13
2023-05-06T20:45:19.925Z,54.33
2023-05-06T20:50:21.386Z,55.29
2023-05-06T20:55:23.650Z,55.22
2023-05-06T21:00:25.211Z,55.23
2023-05-06T21:05:26.755Z,55.31
2023-05-06T21:10:28.255Z,53.92
2023-05-06T21:15:29.784Z,54.28
2023-05-06T21:20:31.953Z,54.97
2023-05-06T21:25:33.446Z,55.45
2023-05-06T21:30:35.025Z,55.39
2023-05-06T21:35:36.766Z,55.45
2023-05-06T21:40:38.397Z,55.38
2023-05-06T21:45:39.944Z,55.02
2023-05-06T21:50:41.438Z,55.18
2023-05-06T21:55:42.907Z,55.05
2023-05-06T22:00:44.410Z,54.74
2023-05-06T22:05:45.886Z,55.24
2023-05-06T22:10:47.366Z,54.97
2023-05-06T22:15:48.835Z,55.27
2023-05-06T22:20:52.408Z,54.94
2023-05-06T22:25:53.926Z,55.08
2023-05-06T22:30:55.432Z,55.67
2023-05-06T22:35:56.958Z,55.54
2023-05-06T22:40:58.418Z,56.09
2023-05-06T22:46:00.035Z,56.52
2023-05-06T22:51:02.826Z,56.21
2023-05-06T22:56:04.193Z,56.14
2023-05-06T23:01:07.240Z,55.63
2023-05-06T23:06:09.928Z,55.38
2023-05-06T23:11:11.387Z,55.81
2023-05-06T23:16:14.479Z,56.11
2023-05-06T23:21:16.159Z,56.16
2023-05-06T23:26:17.625Z,55.58
2023-05-06T23:31:19.212Z,55.86
2023-05-06T23:36:21.171Z,55.61
2023-05-06T23:41:23.494Z,55.96
2023-05-06T23:46:24.997Z,55.93
2023-05-06T23:51:26.542Z,56.02
2023-05-06T23:56:28.458Z,56.38
